createdAt,value
2022-10-14T00:02:13.114Z,23.17
2022-10-14T00:06:18.670Z,20.40
2022-10-14T00:10:20.575Z,22.73
2022-10-14T00:14:23.799Z,25.07
2022-10-14T00:18:25.777Z,20.50
2022-10-14T00:22:27.839Z,19.00
2022-10-14T00:26:32.727Z,20.20
2022-10-14T00:30:34.563Z,19.27
2022-10-14T00:34:36.565Z,22.73
2022-10-14T00:38:38.399Z,19.70
2022-10-14T00:42:40.466Z,19.13
2022-10-14T00:46:47.256Z,17.70
2022-10-14T00:50:52.032Z,19.17
2022-10-14T00:55:16.233Z,19.80
2022-10-14T00:59:18.072Z,21.70
2022-10-14T01:03:22.292Z,19.40
2022-10-14T01:07:59.839Z,20.07
2022-10-14T01:12:30.241Z,18.43
2022-10-14T01:16:55.661Z,16.63
2022-10-14T01:21:15.875Z,16.77
2022-10-14T01:26:04.921Z,18.93
2022-10-14T01:30:30.110Z,18.80
2022-10-14T01:34:39.831Z,17.73
2022-10-14T01:39:03.074Z,20.67
2022-10-14T01:43:05.026Z,16.97
2022-10-14T01:47:06.895Z,18.43
2022-10-14T01:51:15.807Z,19.73
2022-10-14T01:55:21.392Z,19.77
2022-10-14T01:59:23.334Z,20.27
2022-10-14T02:03:31.579Z,19.60
2022-10-14T02:07:49.577Z,20.80
2022-10-14T02:12:18.768Z,22.97
2022-10-14T02:16:47.568Z,23.50
2022-10-14T02:21:29.592Z,23.70
2022-10-14T02:25:37.458Z,27.00
2022-10-14T02:29:39.869Z,23.23
2022-10-14T02:33:46.407Z,23.23
2022-10-14T02:37:48.549Z,25.63
2022-10-14T02:41:50.413Z,25.33
2022-10-14T02:45:57.308Z,25.23
2022-10-14T02:49:59.178Z,27.33
2022-10-14T02:54:02.440Z,24.40
2022-10-14T02:58:04.604Z,23.27
2022-10-14T03:02:07.646Z,23.10
2022-10-14T03:06:12.663Z,23.87
2022-10-14T03:10:14.535Z,22.40
2022-10-14T03:14:19.381Z,21.20
2022-10-14T03:18:21.726Z,22.13
2022-10-14T03:22:23.865Z,26.37
2022-10-14T03:26:26.967Z,25.80
2022-10-14T03:30:39.179Z,23.67
2022-10-14T03:34:40.987Z,26.33
2022-10-14T03:38:42.819Z,23.33
2022-10-14T03:42:44.616Z,24.03
2022-10-14T03:46:46.521Z,20.07
2022-10-14T03:50:48.692Z,21.60
2022-10-14T03:54:50.605Z,26.10
2022-10-14T03:58:52.510Z,25.40
2022-10-14T04:02:56.564Z,25.70
2022-10-14T04:07:16.463Z,24.77
2022-10-14T04:11:19.666Z,28.03
2022-10-14T04:15:22.799Z,25.57
2022-10-14T04:19:24.673Z,25.30
2022-10-14T04:23:26.550Z,27.30
2022-10-14T04:27:28.615Z,25.77
2022-10-14T04:31:30.705Z,27.40
2022-10-14T04:35:32.680Z,22.10
2022-10-14T04:39:34.786Z,29.50
2022-10-14T04:43:39.506Z,26.07
2022-10-14T04:47:46.187Z,28.83
2022-10-14T04:51:50.460Z,26.87
2022-10-14T04:56:02.319Z,24.93
2022-10-14T05:00:10.555Z,25.93
2022-10-14T05:04:12.640Z,27.03
2022-10-14T05:08:14.565Z,27.63
2022-10-14T05:12:16.413Z,27.37
2022-10-14T05:16:18.492Z,30.57
2022-10-14T05:20:20.598Z,26.57
2022-10-14T05:24:22.465Z,29.30
2022-10-14T05:28:24.705Z,29.87
2022-10-14T05:32:26.633Z,32.40
2022-10-14T05:36:34.480Z,30.80
2022-10-14T05:40:40.355Z,32.83
2022-10-14T05:44:42.607Z,34.47
2022-10-14T05:48:46.907Z,34.03
2022-10-14T05:52:48.990Z,31.57
2022-10-14T05:56:50.864Z,32.23
2022-10-14T06:00:56.044Z,31.30
2022-10-14T06:04:58.554Z,34.37
2022-10-14T06:09:05.515Z,35.27
2022-10-14T06:13:09.590Z,33.13
2022-10-14T06:17:20.530Z,33.37
2022-10-14T06:21:26.774Z,34.50
2022-10-14T06:25:29.701Z,30.87
2022-10-14T06:29:38.126Z,30.03
2022-10-14T06:33:48.861Z,31.30
2022-10-14T06:37:50.748Z,32.37
2022-10-14T06:41:52.624Z,29.70
2022-10-14T06:45:57.414Z,33.57
2022-10-14T06:49:59.636Z,32.10
2022-10-14T06:54:02.855Z,30.23
2022-10-14T06:58:04.731Z,30.40
2022-10-14T07:02:06.838Z,31.00
2022-10-14T07:06:09.038Z,33.87
2022-10-14T07:10:11.048Z,42.30
2022-10-14T07:14:12.920Z,33.43
2022-10-14T07:18:14.812Z,41.50
2022-10-14T07:22:17.766Z,29.90
2022-10-14T07:26:19.689Z,31.23
2022-10-14T07:30:21.665Z,31.80
2022-10-14T07:34:23.573Z,29.87
2022-10-14T07:38:27.695Z,30.50
2022-10-14T07:42:34.748Z,28.33
2022-10-14T07:46:39.377Z,34.03
2022-10-14T07:50:41.303Z,27.77
2022-10-14T07:54:44.801Z,26.10
2022-10-14T07:58:46.824Z,27.37
2022-10-14T08:02:48.665Z,29.30
2022-10-14T08:06:51.150Z,25.93
2022-10-14T08:11:11.226Z,27.07
2022-10-14T08:15:13.172Z,31.20
2022-10-14T08:19:15.118Z,25.80
2022-10-14T08:23:20.050Z,29.03
2022-10-14T08:27:22.080Z,28.83
2022-10-14T08:31:24.174Z,26.17
2022-10-14T08:35:26.139Z,24.33
2022-10-14T08:39:29.460Z,28.23
2022-10-14T08:44:04.272Z,29.13
2022-10-14T08:48:14.010Z,28.70
2022-10-14T08:52:18.272Z,28.30
2022-10-14T08:56:20.099Z,27.20
2022-10-14T09:00:22.119Z,33.57
2022-10-14T09:04:24.014Z,29.70
2022-10-14T09:08:38.383Z,27.27
2022-10-14T09:12:40.544Z,29.77
2022-10-14T09:16:42.642Z,32.67
2022-10-14T09:21:27.649Z,27.93
2022-10-14T09:25:17.999Z,30.10
2022-10-14T09:29:38.892Z,26.60
2022-10-14T09:34:08.452Z,27.33
2022-10-14T09:38:12.251Z,26.90
2022-10-14T09:42:48.927Z,27.47
2022-10-14T09:46:55.292Z,25.23
2022-10-14T09:51:02.854Z,26.73
2022-10-14T09:55:05.313Z,24.37
2022-10-14T09:59:20.583Z,23.20
2022-10-14T10:03:35.381Z,16.57
2022-10-14T10:07:37.335Z,9.93
2022-10-14T10:11:40.247Z,23.20
2022-10-14T10:15:55.259Z,16.43
2022-10-14T10:20:33.889Z,4.77
2022-10-14T10:24:41.450Z,4.53
2022-10-14T10:28:55.870Z,5.77
2022-10-14T10:33:34.094Z,3.87
2022-10-14T10:43:12.520Z,4.73
2022-10-14T10:47:45.191Z,3.37
2022-10-14T10:52:28.389Z,3.00
2022-10-14T10:56:39.674Z,3.33
2022-10-14T11:01:30.743Z,4.27
2022-10-14T11:05:56.891Z,2.53
2022-10-14T11:15:22.387Z,3.03
2022-10-14T11:19:46.435Z,2.93
2022-10-14T11:24:19.052Z,3.00
2022-10-14T11:28:41.383Z,3.30
2022-10-14T11:33:12.790Z,4.30
2022-10-14T11:37:29.530Z,2.97
2022-10-14T11:42:02.560Z,3.20
2022-10-14T11:46:17.536Z,3.37
2022-10-14T11:50:26.766Z,3.53
2022-10-14T11:54:46.923Z,3.13
2022-10-14T11:59:05.518Z,3.13
2022-10-14T12:03:20.088Z,4.07
2022-10-14T12:07:29.152Z,3.40
2022-10-14T12:11:56.519Z,3.50
2022-10-14T12:15:58.809Z,2.93
2022-10-14T12:20:08.645Z,3.70
2022-10-14T12:24:16.480Z,3.93
2022-10-14T12:28:19.569Z,2.80
2022-10-14T12:32:32.104Z,4.47
2022-10-14T12:36:34.141Z,4.20
2022-10-14T12:40:36.771Z,4.00
2022-10-14T12:44:56.274Z,4.93
2022-10-14T12:49:12.206Z,4.33
2022-10-14T12:53:30.982Z,4.83
2022-10-14T12:57:37.395Z,4.37
2022-10-14T13:01:53.096Z,4.23
2022-10-14T13:06:43.233Z,4.37
2022-10-14T13:11:56.390Z,7.17
2022-10-14T13:21:29.303Z,6.07
2022-10-14T13:48:06.779Z,12.23
2022-10-14T14:18:06.839Z,17.30
2022-10-14T14:22:29.110Z,16.13
2022-10-14T14:26:37.961Z,15.20
2022-10-14T14:30:39.935Z,17.13
2022-10-14T14:34:43.880Z,16.97
2022-10-14T14:39:30.762Z,17.83
2022-10-14T14:43:53.283Z,19.17
2022-10-14T14:48:05.320Z,24.23
2022-10-14T14:52:07.280Z,22.60
2022-10-14T14:56:14.367Z,27.73
2022-10-14T15:00:20.014Z,26.30
2022-10-14T15:04:31.831Z,24.67
2022-10-14T15:08:36.717Z,24.63
2022-10-14T15:12:41.924Z,26.20
2022-10-14T15:16:44.018Z,24.80
2022-10-14T15:20:46.347Z,26.03
2022-10-14T15:25:23.377Z,27.93
2022-10-14T15:29:27.654Z,23.83
2022-10-14T15:34:02.877Z,28.50
2022-10-14T15:44:29.774Z,23.60
2022-10-14T15:48:42.051Z,25.17
2022-10-14T15:53:52.643Z,23.87
2022-10-14T15:58:38.115Z,22.73
2022-10-14T16:08:29.971Z,20.43
2022-10-14T16:12:31.846Z,23.47
2022-10-14T16:16:36.765Z,18.30
2022-10-14T16:20:38.658Z,16.03
2022-10-14T16:24:40.771Z,14.10
2022-10-14T16:28:56.806Z,13.10
2022-10-14T16:33:04.809Z,13.37
2022-10-14T16:37:09.779Z,11.53
2022-10-14T16:41:14.367Z,10.27
2022-10-14T16:45:16.579Z,9.87
2022-10-14T16:49:18.607Z,10.57
2022-10-14T16:53:39.338Z,9.97
2022-10-14T16:57:41.410Z,11.13
2022-10-14T17:01:43.265Z,15.40
2022-10-14T17:05:46.591Z,17.23
2022-10-14T17:09:48.592Z,14.90
2022-10-14T17:13:54.601Z,19.93
2022-10-14T17:17:56.462Z,19.10
2022-10-14T17:21:59.877Z,20.17
2022-10-14T17:32:03.388Z,22.20
2022-10-14T17:36:08.456Z,23.37
2022-10-14T17:40:10.888Z,25.30
2022-10-14T17:44:13.097Z,22.93
2022-10-14T17:48:27.688Z,26.60
2022-10-14T17:53:26.143Z,25.97
2022-10-14T17:57:28.044Z,29.67
2022-10-14T18:02:00.968Z,26.97
2022-10-14T18:05:54.113Z,31.40
2022-10-14T18:09:56.089Z,27.47
2022-10-14T18:14:04.322Z,29.83
2022-10-14T18:18:07.122Z,30.23
2022-10-14T18:22:11.219Z,28.67
2022-10-14T18:26:16.388Z,30.67
2022-10-14T18:30:18.515Z,31.57
2022-10-14T18:34:22.484Z,30.33
2022-10-14T18:38:24.504Z,27.63
2022-10-14T18:42:26.995Z,31.60
2022-10-14T18:46:34.700Z,29.70
2022-10-14T18:50:36.571Z,29.97
2022-10-14T18:54:38.441Z,32.30
2022-10-14T18:58:40.305Z,30.20
2022-10-14T19:02:42.320Z,26.80
2022-10-14T19:06:54.664Z,32.70
2022-10-14T19:11:23.716Z,30.33
2022-10-14T19:15:40.641Z,29.07
2022-10-14T19:20:04.926Z,26.03
2022-10-14T19:24:23.285Z,25.03
2022-10-14T19:29:06.492Z,24.30
2022-10-14T19:33:11.194Z,22.90
2022-10-14T19:37:13.119Z,21.97
2022-10-14T19:41:15.740Z,23.00
2022-10-14T19:45:21.884Z,22.10
2022-10-14T19:49:24.038Z,20.47
2022-10-14T19:53:26.086Z,20.90
2022-10-14T19:57:28.287Z,19.87
2022-10-14T20:01:31.913Z,20.20
2022-10-14T20:05:35.348Z,20.40
2022-10-14T20:09:37.341Z,19.23
2022-10-14T20:13:39.915Z,20.37
2022-10-14T20:17:41.907Z,17.17
2022-10-14T20:21:43.897Z,17.50
2022-10-14T20:25:46.447Z,17.67
2022-10-14T20:29:48.355Z,17.00
2022-10-14T20:33:59.256Z,18.47
2022-10-14T20:38:01.276Z,18.30
2022-10-14T20:42:03.225Z,17.33
2022-10-14T20:46:05.285Z,15.70
2022-10-14T20:50:07.938Z,16.43
2022-10-14T20:54:11.851Z,17.00
2022-10-14T20:58:13.903Z,16.17
2022-10-14T21:02:17.657Z,18.10
2022-10-14T21:06:21.738Z,18.20
2022-10-14T21:10:24.391Z,16.93
2022-10-14T21:14:26.304Z,14.27
2022-10-14T21:18:29.304Z,13.80
2022-10-14T21:22:31.125Z,15.80
2022-10-14T21:26:33.087Z,14.47
2022-10-14T21:30:35.072Z,16.90
2022-10-14T21:34:36.992Z,15.60
2022-10-14T21:38:39.402Z,14.33
2022-10-14T21:42:41.520Z,16.30
2022-10-14T21:46:43.378Z,13.07
2022-10-14T21:50:46.369Z,16.83
2022-10-14T21:54:48.287Z,15.00
2022-10-14T21:58:50.217Z,15.17
2022-10-14T22:02:53.889Z,14.33
2022-10-14T22:06:55.712Z,13.20
2022-10-14T22:10:57.671Z,13.77
2022-10-14T22:14:59.575Z,14.03
2022-10-14T22:19:02.659Z,15.50
2022-10-14T22:23:04.593Z,14.20
2022-10-14T22:27:06.361Z,13.93
2022-10-14T22:31:10.822Z,13.70
2022-10-14T22:35:12.716Z,14.17
2022-10-14T22:39:15.481Z,14.33
2022-10-14T22:43:17.382Z,14.83
2022-10-14T22:47:19.179Z,13.53
2022-10-14T22:51:21.053Z,14.03
2022-10-14T22:55:22.858Z,14.77
2022-10-14T22:59:37.587Z,15.10
2022-10-14T23:03:42.479Z,12.17
2022-10-14T23:07:44.342Z,11.33
2022-10-14T23:11:46.247Z,11.93
2022-10-14T23:16:06.578Z,12.37
2022-10-14T23:20:12.550Z,11.50
2022-10-14T23:24:14.370Z,11.83
2022-10-14T23:28:16.263Z,12.50
2022-10-14T23:36:22.074Z,15.60
2022-10-14T23:40:23.897Z,11.67
2022-10-14T23:44:25.720Z,13.70
2022-10-14T23:48:27.791Z,12.80
2022-10-14T23:52:29.671Z,13.93
2022-10-14T23:56:31.750Z,12.70
